createdAt,value
2022-09-22T00:01:56.399Z,29.13
2022-09-22T00:04:29.215Z,30.08
2022-09-22T00:06:58.627Z,34.35
2022-09-22T00:09:27.170Z,32.95
2022-09-22T00:11:55.835Z,25.52
2022-09-22T00:14:28.753Z,23.30
2022-09-22T00:17:01.509Z,18.58
2022-09-22T00:19:32.799Z,15.18
2022-09-22T00:22:02.708Z,13.90
2022-09-22T00:24:31.412Z,19.25
2022-09-22T00:27:01.993Z,15.98
2022-09-22T00:29:30.873Z,16.50
2022-09-22T00:32:07.575Z,32.28
2022-09-22T00:34:42.146Z,37.90
2022-09-22T00:37:12.296Z,35.10
2022-09-22T00:39:43.299Z,29.67
2022-09-22T00:42:14.602Z,33.55
2022-09-22T00:44:44.351Z,34.45
2022-09-22T00:47:31.420Z,33.00
2022-09-22T00:50:01.044Z,24.27
2022-09-22T00:52:45.525Z,17.25
2022-09-22T00:55:37.872Z,13.70
2022-09-22T00:58:14.057Z,13.10
2022-09-22T01:00:46.438Z,10.35
2022-09-22T01:03:21.869Z,9.82
2022-09-22T01:05:59.145Z,8.88
2022-09-22T01:08:29.776Z,22.80
2022-09-22T01:10:59.530Z,10.80
2022-09-22T01:13:27.964Z,18.20
2022-09-22T01:16:16.128Z,16.52
2022-09-22T01:19:12.745Z,14.48
2022-09-22T01:21:47.928Z,17.42
2022-09-22T01:24:40.717Z,15.98
2022-09-22T01:27:27.115Z,14.15
2022-09-22T01:30:22.753Z,9.07
2022-09-22T01:33:08.492Z,11.25
2022-09-22T01:35:53.116Z,13.45
2022-09-22T01:38:52.268Z,12.77
2022-09-22T01:41:36.436Z,10.07
2022-09-22T01:44:15.170Z,10.95
2022-09-22T01:46:52.700Z,12.07
2022-09-22T01:49:24.362Z,10.60
2022-09-22T01:52:06.411Z,12.27
2022-09-22T01:55:14.272Z,11.70
2022-09-22T01:57:54.722Z,13.30
2022-09-22T02:00:28.695Z,14.32
2022-09-22T02:03:05.675Z,13.43
2022-09-22T02:05:45.519Z,10.15
2022-09-22T02:08:20.242Z,13.05
2022-09-22T02:10:52.311Z,11.47
2022-09-22T02:13:21.821Z,8.48
2022-09-22T02:16:00.289Z,7.43
2022-09-22T02:18:49.778Z,8.93
2022-09-22T02:21:20.169Z,8.52
2022-09-22T02:23:49.540Z,7.05
2022-09-22T02:26:27.395Z,8.20
2022-09-22T02:29:04.027Z,10.93
2022-09-22T02:31:36.308Z,6.53
2022-09-22T02:37:07.225Z,9.45
2022-09-22T02:39:57.016Z,8.15
2022-09-22T02:42:42.662Z,7.50
2022-09-22T02:45:22.136Z,12.40
2022-09-22T02:48:00.386Z,7.90
2022-09-22T02:50:35.515Z,14.48
2022-09-22T02:53:13.029Z,16.90
2022-09-22T02:55:42.336Z,15.23
2022-09-22T02:58:11.471Z,15.27
2022-09-22T03:00:39.851Z,8.02
2022-09-22T03:03:10.706Z,12.93
2022-09-22T03:05:47.502Z,42.65
2022-09-22T03:08:16.118Z,22.83
2022-09-22T03:10:44.422Z,61.00
2022-09-22T03:13:17.096Z,42.72
2022-09-22T03:15:46.661Z,48.28
2022-09-22T03:18:16.980Z,90.63
2022-09-22T03:20:45.411Z,47.40
2022-09-22T03:23:13.581Z,65.28
2022-09-22T03:25:43.083Z,25.25
2022-09-22T03:28:13.407Z,32.42
2022-09-22T03:30:41.922Z,52.05
2022-09-22T03:33:10.638Z,85.00
2022-09-22T03:35:40.129Z,27.02
2022-09-22T03:38:08.416Z,34.22
2022-09-22T03:40:37.075Z,21.95
2022-09-22T03:43:05.221Z,32.35
2022-09-22T03:45:37.513Z,64.95
2022-09-22T03:48:08.517Z,41.83
2022-09-22T03:50:37.373Z,20.50
2022-09-22T03:53:08.443Z,43.80
2022-09-22T03:55:38.620Z,40.83
2022-09-22T03:58:08.466Z,27.05
2022-09-22T04:00:37.545Z,69.47
2022-09-22T04:03:06.136Z,38.17
2022-09-22T04:05:51.936Z,50.53
2022-09-22T04:08:21.476Z,82.93
2022-09-22T04:10:49.946Z,60.97
2022-09-22T04:13:18.845Z,68.28
2022-09-22T04:15:47.155Z,93.25
2022-09-22T04:18:16.480Z,38.22
2022-09-22T04:20:53.962Z,82.25
2022-09-22T04:23:23.328Z,154.60
2022-09-22T04:25:54.078Z,99.55
2022-09-22T04:28:24.845Z,100.50
2022-09-22T04:30:54.668Z,194.63
2022-09-22T04:33:32.119Z,59.25
2022-09-22T04:36:03.088Z,74.38
2022-09-22T04:38:31.234Z,145.25
2022-09-22T04:41:01.588Z,94.80
2022-09-22T04:43:30.361Z,104.25
2022-09-22T04:45:58.692Z,110.20
2022-09-22T04:48:28.203Z,51.63
2022-09-22T04:50:59.259Z,79.30
2022-09-22T04:53:27.315Z,61.80
2022-09-22T04:55:56.957Z,80.38
2022-09-22T04:58:27.100Z,25.40
2022-09-22T05:00:55.973Z,47.58
2022-09-22T05:03:26.156Z,67.70
2022-09-22T05:05:58.090Z,45.88
2022-09-22T05:08:27.327Z,49.35
2022-09-22T05:10:57.438Z,31.00
2022-09-22T05:13:27.785Z,30.95
2022-09-22T05:15:57.433Z,54.15
2022-09-22T05:18:26.277Z,37.50
2022-09-22T05:20:56.248Z,36.92
2022-09-22T05:23:24.800Z,28.63
2022-09-22T05:25:55.024Z,23.80
2022-09-22T05:28:25.761Z,33.30
2022-09-22T05:30:54.251Z,31.92
2022-09-22T05:33:23.348Z,86.88
2022-09-22T05:35:53.184Z,38.72
2022-09-22T05:38:22.510Z,20.58
2022-09-22T05:40:50.783Z,35.00
2022-09-22T05:43:19.701Z,16.63
2022-09-22T05:45:50.017Z,52.88
2022-09-22T05:48:18.569Z,35.88
2022-09-22T05:50:47.855Z,23.73
2022-09-22T05:53:21.303Z,48.88
2022-09-22T05:55:49.481Z,40.10
2022-09-22T05:58:19.244Z,50.72
2022-09-22T06:00:49.140Z,30.33
2022-09-22T06:03:21.871Z,36.55
2022-09-22T06:05:50.448Z,61.22
2022-09-22T06:08:19.454Z,58.53
2022-09-22T06:10:49.180Z,63.80
2022-09-22T06:13:20.180Z,89.55
2022-09-22T06:15:50.752Z,40.90
2022-09-22T06:18:24.233Z,72.43
2022-09-22T06:20:59.895Z,58.58
2022-09-22T06:23:32.375Z,131.43
2022-09-22T06:26:02.618Z,98.15
2022-09-22T06:28:32.463Z,104.57
2022-09-22T06:31:01.387Z,43.28
2022-09-22T06:33:30.932Z,53.28
2022-09-22T06:36:08.310Z,43.28
2022-09-22T06:38:37.352Z,31.45
2022-09-22T06:41:07.121Z,27.38
2022-09-22T06:43:38.033Z,39.70
2022-09-22T06:46:06.659Z,32.03
2022-09-22T06:48:35.842Z,18.48
2022-09-22T06:51:04.900Z,22.20
2022-09-22T06:53:34.710Z,15.48
2022-09-22T06:56:06.633Z,14.77
2022-09-22T06:58:52.407Z,17.15
2022-09-22T07:01:31.398Z,16.77
2022-09-22T07:04:00.338Z,17.05
2022-09-22T07:06:32.545Z,16.08
2022-09-22T07:09:02.154Z,13.68
2022-09-22T07:11:30.788Z,67.32
2022-09-22T07:14:03.360Z,19.17
2022-09-22T07:16:33.375Z,20.90
2022-09-22T07:19:01.879Z,14.95
2022-09-22T07:21:35.324Z,13.68
2022-09-22T07:24:11.338Z,15.20
2022-09-22T07:26:44.139Z,10.55
2022-09-22T07:29:16.889Z,10.60
2022-09-22T07:31:45.664Z,11.52
2022-09-22T07:34:16.938Z,9.43
2022-09-22T07:36:45.263Z,9.93
2022-09-22T07:39:13.775Z,10.55
2022-09-22T07:41:43.672Z,17.00
2022-09-22T07:44:32.919Z,11.88
2022-09-22T07:47:02.375Z,15.52
2022-09-22T07:49:32.336Z,21.25
2022-09-22T07:52:01.175Z,10.82
2022-09-22T07:54:34.862Z,10.32
2022-09-22T07:57:06.930Z,7.80
2022-09-22T07:59:46.352Z,25.25
2022-09-22T08:02:16.754Z,9.50
2022-09-22T08:04:45.268Z,7.88
2022-09-22T08:07:15.378Z,9.48
2022-09-22T08:09:43.940Z,18.95
2022-09-22T08:12:15.016Z,11.13
2022-09-22T08:14:43.549Z,7.25
2022-09-22T08:17:13.067Z,7.88
2022-09-22T08:19:42.915Z,6.70
2022-09-22T08:22:13.851Z,12.45
2022-09-22T08:24:48.638Z,6.35
2022-09-22T08:27:17.450Z,7.30
2022-09-22T08:29:48.062Z,6.43
2022-09-22T08:32:18.537Z,4.80
2022-09-22T08:34:48.211Z,5.40
2022-09-22T08:37:17.822Z,4.78
2022-09-22T08:39:45.693Z,18.77
2022-09-22T08:42:18.580Z,11.55
2022-09-22T08:44:57.286Z,4.63
2022-09-22T08:48:05.229Z,7.97
2022-09-22T08:51:11.898Z,4.10
2022-09-22T08:54:31.004Z,6.45
2022-09-22T08:57:19.929Z,4.18
2022-09-22T09:00:09.305Z,5.15
2022-09-22T09:02:42.108Z,5.40
2022-09-22T09:05:28.418Z,7.22
2022-09-22T09:08:17.458Z,7.45
2022-09-22T09:11:08.068Z,3.95
2022-09-22T09:13:45.672Z,5.88
2022-09-22T09:16:16.013Z,8.75
2022-09-22T09:18:46.928Z,5.05
2022-09-22T09:21:16.537Z,3.58
2022-09-22T09:26:38.449Z,29.05
2022-09-22T09:29:09.300Z,7.32
2022-09-22T09:31:44.655Z,4.95
2022-09-22T09:34:17.396Z,2.85
2022-09-22T09:36:49.323Z,6.90
2022-09-22T09:39:21.229Z,10.45
2022-09-22T09:41:50.101Z,3.78
2022-09-22T09:44:25.142Z,2.83
2022-09-22T09:46:57.364Z,3.08
2022-09-22T09:49:26.338Z,2.70
2022-09-22T09:51:57.002Z,3.40
2022-09-22T09:54:27.671Z,3.30
2022-09-22T09:57:13.425Z,5.45
2022-09-22T10:00:04.924Z,4.80
2022-09-22T10:02:56.903Z,5.28
2022-09-22T10:05:27.283Z,4.55
2022-09-22T10:08:02.660Z,4.57
2022-09-22T10:10:41.930Z,1.48
2022-09-22T10:13:11.094Z,6.50
2022-09-22T10:15:42.726Z,4.20
2022-09-22T10:18:35.170Z,9.57
2022-09-22T10:21:07.282Z,19.30
2022-09-22T10:23:35.758Z,9.57
2022-09-22T10:26:19.217Z,10.48
2022-09-22T10:29:12.800Z,12.43
2022-09-22T10:31:42.029Z,27.10
2022-09-22T10:37:16.995Z,2.95
2022-09-22T10:39:59.786Z,4.22
2022-09-22T10:42:36.441Z,5.43
2022-09-22T10:45:16.676Z,3.65
2022-09-22T10:48:05.045Z,10.90
2022-09-22T10:50:42.637Z,9.20
2022-09-22T10:53:39.681Z,24.08
2022-09-22T10:56:16.360Z,12.30
2022-09-22T10:59:02.687Z,30.77
2022-09-22T11:01:54.161Z,17.48
2022-09-22T11:04:47.167Z,8.18
2022-09-22T11:07:48.738Z,24.27
2022-09-22T11:10:56.885Z,13.85
2022-09-22T11:14:02.226Z,36.42
2022-09-22T11:16:46.199Z,16.30
2022-09-22T11:19:27.684Z,12.18
2022-09-22T11:22:34.502Z,13.73
2022-09-22T11:25:26.449Z,34.70
2022-09-22T11:28:26.910Z,12.48
2022-09-22T11:31:00.420Z,12.80
2022-09-22T11:34:12.669Z,8.15
2022-09-22T11:36:42.564Z,11.10
2022-09-22T11:39:49.622Z,7.88
2022-09-22T11:42:51.640Z,6.10
2022-09-22T11:46:11.607Z,3.45
2022-09-22T11:49:06.926Z,2.40
2022-09-22T11:51:44.455Z,10.02
2022-09-22T11:54:30.205Z,9.15
2022-09-22T11:57:09.363Z,13.00
2022-09-22T12:00:09.516Z,7.13
2022-09-22T12:05:48.708Z,13.95
2022-09-22T12:08:45.506Z,3.35
2022-09-22T12:14:04.560Z,6.18
2022-09-22T12:20:20.856Z,7.18
2022-09-22T12:23:09.526Z,7.72
2022-09-22T12:25:52.261Z,7.90
2022-09-22T12:28:40.477Z,19.88
2022-09-22T12:31:17.344Z,8.73
2022-09-22T12:34:18.854Z,11.13
2022-09-22T12:37:00.389Z,9.13
2022-09-22T12:39:33.164Z,17.50
2022-09-22T12:42:19.385Z,7.18
2022-09-22T12:45:06.921Z,7.47
2022-09-22T12:47:42.426Z,3.33
2022-09-22T12:50:32.654Z,2.30
2022-09-22T12:53:05.688Z,2.33
2022-09-22T12:55:43.385Z,7.50
2022-09-22T12:58:23.248Z,10.80
2022-09-22T13:01:34.773Z,1.83
2022-09-22T13:04:18.048Z,59.03
2022-09-22T13:09:47.953Z,6.43
2022-09-22T13:12:45.910Z,9.38
2022-09-22T13:15:20.289Z,12.15
2022-09-22T13:17:53.074Z,21.08
2022-09-22T13:20:35.163Z,8.20
2022-09-22T13:23:14.861Z,7.10
2022-09-22T13:25:48.968Z,6.97
2022-09-22T13:28:20.549Z,5.05
2022-09-22T13:31:20.346Z,13.18
2022-09-22T13:33:50.483Z,1.48
2022-09-22T13:36:24.050Z,7.60
2022-09-22T13:38:59.483Z,3.25
2022-09-22T13:41:29.094Z,5.97
2022-09-22T13:44:12.403Z,7.93
2022-09-22T13:46:44.594Z,3.35
2022-09-22T13:49:18.442Z,5.50
2022-09-22T13:51:57.182Z,3.08
2022-09-22T13:54:34.291Z,7.32
2022-09-22T13:57:05.228Z,3.42
2022-09-22T13:59:43.822Z,3.67
2022-09-22T14:02:15.316Z,3.85
2022-09-22T14:04:52.830Z,10.07
2022-09-22T14:07:22.384Z,7.43
2022-09-22T14:09:52.560Z,7.97
2022-09-22T14:12:22.966Z,6.22
2022-09-22T14:14:51.284Z,13.45
2022-09-22T14:17:26.195Z,9.77
2022-09-22T14:20:04.948Z,28.30
2022-09-22T14:22:42.586Z,16.77
2022-09-22T14:25:22.581Z,11.75
2022-09-22T14:28:02.866Z,6.05
2022-09-22T14:30:42.826Z,15.55
2022-09-22T14:33:18.504Z,10.35
2022-09-22T14:35:52.475Z,10.60
2022-09-22T14:38:23.427Z,2.85
2022-09-22T14:40:59.730Z,4.22
2022-09-22T14:43:42.648Z,9.23
2022-09-22T14:46:34.268Z,13.45
2022-09-22T14:49:30.844Z,15.45
2022-09-22T14:52:03.767Z,13.45
2022-09-22T14:54:44.740Z,48.88
2022-09-22T14:57:18.669Z,42.65
2022-09-22T15:00:21.317Z,3.47
2022-09-22T15:02:53.993Z,12.43
2022-09-22T15:05:38.511Z,19.95
2022-09-22T15:08:13.715Z,15.43
2022-09-22T15:10:54.069Z,13.88
2022-09-22T15:13:42.090Z,5.88
2022-09-22T15:16:41.150Z,12.55
2022-09-22T15:19:15.066Z,16.35
2022-09-22T15:21:53.160Z,13.90
2022-09-22T15:24:27.236Z,10.75
2022-09-22T15:27:00.572Z,12.35
2022-09-22T15:29:31.070Z,11.27
2022-09-22T15:32:05.898Z,20.55
2022-09-22T15:34:36.448Z,6.43
2022-09-22T15:37:06.232Z,9.35
2022-09-22T15:39:35.727Z,8.25
2022-09-22T15:42:10.315Z,5.70
2022-09-22T15:44:41.431Z,7.10
2022-09-22T15:47:18.135Z,18.90
2022-09-22T15:49:47.562Z,43.08
2022-09-22T15:52:18.443Z,17.92
2022-09-22T15:54:48.429Z,16.63
2022-09-22T15:57:18.059Z,9.73
2022-09-22T15:59:47.445Z,25.95
2022-09-22T16:02:17.476Z,135.57
2022-09-22T16:04:45.795Z,163.35
2022-09-22T16:07:15.317Z,780.30
2022-09-22T16:09:44.141Z,375.95
2022-09-22T16:12:14.207Z,201.40
2022-09-22T16:17:26.953Z,77.78
2022-09-22T16:19:58.674Z,72.15
2022-09-22T16:22:27.226Z,106.13
2022-09-22T16:24:55.780Z,42.30
2022-09-22T16:27:25.360Z,83.57
2022-09-22T16:29:58.086Z,49.75
2022-09-22T16:32:27.837Z,25.60
2022-09-22T16:34:56.335Z,21.67
2022-09-22T16:37:25.821Z,17.85
2022-09-22T16:39:54.082Z,23.40
2022-09-22T16:42:33.149Z,21.17
2022-09-22T16:45:45.135Z,15.63
2022-09-22T16:48:20.339Z,190.38
2022-09-22T16:50:57.581Z,235.50
2022-09-22T16:53:29.269Z,167.88
2022-09-22T16:55:58.490Z,148.13
2022-09-22T16:58:27.496Z,30.52
2022-09-22T17:01:05.648Z,16.42
2022-09-22T17:03:34.112Z,9.50
2022-09-22T17:06:11.774Z,39.83
2022-09-22T17:08:44.360Z,201.95
2022-09-22T17:11:17.648Z,272.08
2022-09-22T17:13:47.608Z,57.75
2022-09-22T17:16:30.051Z,344.17
2022-09-22T17:19:03.548Z,68.13
2022-09-22T17:21:41.702Z,35.00
2022-09-22T17:24:12.701Z,19.25
2022-09-22T17:27:01.670Z,14.15
2022-09-22T17:29:38.414Z,17.27
2022-09-22T17:32:11.360Z,60.28
2022-09-22T17:34:42.069Z,47.95
2022-09-22T17:37:14.939Z,25.88
2022-09-22T17:39:50.823Z,10.82
2022-09-22T17:42:21.620Z,23.02
2022-09-22T17:44:53.252Z,12.73
2022-09-22T17:47:46.146Z,8.27
2022-09-22T17:50:36.496Z,7.35
2022-09-22T17:53:25.624Z,26.58
2022-09-22T17:56:06.204Z,27.92
2022-09-22T17:58:36.107Z,21.45
2022-09-22T18:01:32.098Z,29.13
2022-09-22T18:06:51.959Z,43.70
2022-09-22T18:09:22.258Z,53.08
2022-09-22T18:11:52.103Z,63.97
2022-09-22T18:17:19.222Z,23.10
2022-09-22T18:19:54.790Z,36.50
2022-09-22T18:22:24.868Z,23.58
2022-09-22T18:24:55.670Z,16.65
2022-09-22T18:27:29.509Z,24.60
2022-09-22T18:30:05.086Z,46.70
2022-09-22T18:32:35.208Z,72.25
2022-09-22T18:35:06.407Z,16.08
2022-09-22T18:37:37.862Z,22.35
2022-09-22T18:40:08.996Z,42.10
2022-09-22T18:42:42.012Z,25.45
2022-09-22T18:45:11.285Z,32.72
2022-09-22T18:47:43.797Z,19.42
2022-09-22T18:50:16.057Z,15.63
2022-09-22T18:52:56.789Z,14.93
2022-09-22T18:55:28.072Z,12.43
2022-09-22T18:57:59.642Z,14.07
2022-09-22T19:00:32.282Z,10.07
2022-09-22T19:03:10.221Z,10.23
2022-09-22T19:05:48.061Z,9.95
2022-09-22T19:08:15.994Z,8.90
2022-09-22T19:10:44.466Z,10.65
2022-09-22T19:13:16.119Z,10.18
2022-09-22T19:15:58.007Z,11.90
2022-09-22T19:18:31.302Z,14.80
2022-09-22T19:21:14.275Z,28.23
2022-09-22T19:23:44.556Z,25.05
2022-09-22T19:26:15.507Z,10.80
2022-09-22T19:28:44.487Z,7.63
2022-09-22T19:31:13.804Z,10.75
2022-09-22T19:33:45.634Z,8.45
2022-09-22T19:36:15.192Z,7.20
2022-09-22T19:38:49.798Z,8.55
2022-09-22T19:41:20.588Z,15.38
2022-09-22T19:43:58.891Z,16.75
2022-09-22T19:46:33.735Z,16.95
2022-09-22T19:49:07.154Z,16.25
2022-09-22T19:51:37.196Z,16.05
2022-09-22T19:54:21.488Z,25.90
2022-09-22T19:56:51.629Z,24.23
2022-09-22T19:59:21.721Z,19.60
2022-09-22T20:01:51.165Z,18.25
2022-09-22T20:04:27.200Z,19.75
2022-09-22T20:06:56.798Z,29.48
2022-09-22T20:09:25.807Z,26.23
2022-09-22T20:11:55.857Z,23.55
2022-09-22T20:14:32.423Z,30.83
2022-09-22T20:17:05.995Z,53.38
2022-09-22T20:19:38.383Z,41.25
2022-09-22T20:22:27.786Z,23.73
2022-09-22T20:25:00.894Z,16.40
2022-09-22T20:27:33.465Z,42.08
2022-09-22T20:30:16.155Z,52.72
2022-09-22T20:32:51.938Z,41.95
2022-09-22T20:35:22.753Z,49.95
2022-09-22T20:37:57.799Z,61.97
2022-09-22T20:40:29.717Z,59.25
2022-09-22T20:43:14.711Z,50.83
2022-09-22T20:45:43.950Z,45.35
2022-09-22T20:48:18.688Z,48.05
2022-09-22T20:50:58.834Z,31.33
2022-09-22T20:53:29.061Z,26.85
2022-09-22T20:56:18.124Z,23.25
2022-09-22T20:59:00.882Z,28.95
2022-09-22T21:01:31.670Z,13.80
2022-09-22T21:04:02.229Z,13.20
2022-09-22T21:06:31.237Z,12.88
2022-09-22T21:09:21.490Z,13.70
2022-09-22T21:11:58.651Z,16.60
2022-09-22T21:14:29.347Z,28.25
2022-09-22T21:17:04.350Z,18.25
2022-09-22T21:19:34.614Z,25.02
2022-09-22T21:22:03.713Z,28.88
2022-09-22T21:24:34.558Z,26.30
2022-09-22T21:27:10.086Z,23.02
2022-09-22T21:29:46.736Z,21.13
2022-09-22T21:32:20.009Z,16.48
2022-09-22T21:34:49.941Z,20.23
2022-09-22T21:37:22.078Z,16.90
2022-09-22T21:39:50.571Z,20.60
2022-09-22T21:42:22.088Z,18.98
2022-09-22T21:44:52.562Z,20.50
2022-09-22T21:47:28.215Z,18.67
2022-09-22T21:49:59.301Z,25.38
2022-09-22T21:52:28.270Z,40.40
2022-09-22T21:54:57.786Z,59.53
2022-09-22T21:57:26.692Z,19.17
2022-09-22T21:59:56.829Z,16.02
2022-09-22T22:02:49.796Z,17.00
2022-09-22T22:05:18.148Z,15.15
2022-09-22T22:07:47.559Z,13.65
2022-09-22T22:10:17.569Z,13.07
2022-09-22T22:12:53.869Z,21.13
2022-09-22T22:15:28.797Z,20.83
2022-09-22T22:18:01.839Z,19.52
2022-09-22T22:20:36.616Z,18.08
2022-09-22T22:23:06.282Z,26.83
2022-09-22T22:25:37.329Z,29.90
2022-09-22T22:28:17.185Z,32.97
2022-09-22T22:30:47.003Z,17.58
2022-09-22T22:33:17.553Z,23.10
2022-09-22T22:35:58.592Z,15.95
2022-09-22T22:38:44.550Z,15.32
2022-09-22T22:41:15.233Z,14.20
2022-09-22T22:43:51.173Z,15.35
2022-09-22T22:46:20.201Z,15.27
2022-09-22T22:48:50.284Z,12.65
2022-09-22T22:51:26.272Z,16.60
2022-09-22T22:53:56.357Z,25.50
2022-09-22T22:56:37.085Z,111.10
2022-09-22T22:59:09.832Z,104.37
2022-09-22T23:01:41.718Z,193.88
2022-09-22T23:04:11.966Z,219.77
2022-09-22T23:06:46.365Z,314.70
2022-09-22T23:09:16.990Z,162.88
2022-09-22T23:11:49.602Z,245.35
2022-09-22T23:14:18.991Z,101.18
2022-09-22T23:16:49.931Z,204.35
2022-09-22T23:19:20.912Z,222.80
2022-09-22T23:21:52.900Z,164.43
2022-09-22T23:24:25.368Z,128.18
2022-09-22T23:26:56.264Z,111.05
2022-09-22T23:29:24.822Z,110.55
2022-09-22T23:31:55.878Z,99.22
2022-09-22T23:34:27.434Z,104.85
2022-09-22T23:36:58.126Z,148.27
2022-09-22T23:39:32.154Z,133.75
2022-09-22T23:42:06.620Z,96.50
2022-09-22T23:44:36.046Z,149.18
2022-09-22T23:47:04.992Z,195.27
2022-09-22T23:49:34.697Z,109.35
2022-09-22T23:52:07.887Z,114.70
2022-09-22T23:54:37.848Z,146.43
2022-09-22T23:57:08.422Z,86.97
2022-09-22T23:59:37.942Z,89.70
